sensor_id;sensor_type;location;lat;lon;timestamp;temperature;humidity
9193;DHT22;4631;49.296;10.560;2022-11-30T00:02:17;5.40;99.90
9193;DHT22;4631;49.296;10.560;2022-11-30T00:04:44;5.50;99.90
9193;DHT22;4631;49.296;10.560;2022-11-30T00:07:10;5.40;99.90
9193;DHT22;4631;49.296;10.560;2022-11-30T00:09:37;5.40;99.90
9193;DHT22;4631;49.296;10.560;2022-11-30T00:12:04;5.40;99.90
9193;DHT22;4631;49.296;10.560;2022-11-30T00:14:32;5.40;99.90
9193;DHT22;4631;49.296;10.560;2022-11-30T00:16:59;5.40;99.90
9193;DHT22;4631;49.296;10.560;2022-11-30T00:19:25;5.40;99.90
9193;DHT22;4631;49.296;10.560;2022-11-30T00:21:52;5.40;99.90
9193;DHT22;4631;49.296;10.560;2022-11-30T00:24:18;5.30;99.90
9193;DHT22;4631;49.296;10.560;2022-11-30T00:26:45;5.30;99.90
9193;DHT22;4631;49.296;10.560;2022-11-30T00:29:12;5.40;99.90
9193;DHT22;4631;49.296;10.560;2022-11-30T00:31:40;5.40;99.90
9193;DHT22;4631;49.296;10.560;2022-11-30T00:34:06;5.40;99.90
9193;DHT22;4631;49.296;10.560;2022-11-30T00:36:33;5.50;99.90
9193;DHT22;4631;49.296;10.560;2022-11-30T00:38:59;5.40;99.90
9193;DHT22;4631;49.296;10.560;2022-11-30T00:41:26;5.40;99.90
9193;DHT22;4631;49.296;10.560;2022-11-30T00:43:53;5.40;99.90
9193;DHT22;4631;49.296;10.560;2022-11-30T00:46:19;5.40;99.90
9193;DHT22;4631;49.296;10.560;2022-11-30T00:48:47;5.40;99.90
9193;DHT22;4631;49.296;10.560;2022-11-30T00:51:14;5.50;99.90
9193;DHT22;4631;49.296;10.560;2022-11-30T00:53:41;5.50;99.90
9193;DHT22;4631;49.296;10.560;2022-11-30T00:56:08;5.40;99.90
9193;DHT22;4631;49.296;10.560;2022-11-30T00:58:34;5.40;99.90
9193;DHT22;4631;49.296;10.560;2022-11-30T01:01:01;5.40;99.90
9193;DHT22;4631;49.296;10.560;2022-11-30T01:03:27;5.40;99.90
9193;DHT22;4631;49.296;10.560;2022-11-30T01:05:58;5.40;99.90
9193;DHT22;4631;49.296;10.560;2022-11-30T01:08:26;5.50;99.90
9193;DHT22;4631;49.296;10.560;2022-11-30T01:10:53;5.50;99.90
9193;DHT22;4631;49.296;10.560;2022-11-30T01:13:22;5.50;99.90
9193;DHT22;4631;49.296;10.560;2022-11-30T01:15:48;5.40;99.90
9193;DHT22;4631;49.296;10.560;2022-11-30T01:18:15;5.40;99.90
9193;DHT22;4631;49.296;10.560;2022-11-30T01:20:42;5.40;99.90
9193;DHT22;4631;49.296;10.560;2022-11-30T01:23:10;5.40;99.90
9193;DHT22;4631;49.296;10.560;2022-11-30T01:25:37;5.40;99.90
9193;DHT22;4631;49.296;10.560;2022-11-30T01:28:03;5.40;99.90
9193;DHT22;4631;49.296;10.560;2022-11-30T01:30:30;5.30;99.90
9193;DHT22;4631;49.296;10.560;2022-11-30T01:33:00;5.30;99.90
9193;DHT22;4631;49.296;10.560;2022-11-30T01:35:26;5.30;99.90
9193;DHT22;4631;49.296;10.560;2022-11-30T01:37:53;5.30;99.90
9193;DHT22;4631;49.296;10.560;2022-11-30T01:40:21;5.30;99.90
9193;DHT22;4631;49.296;10.560;2022-11-30T01:42:48;5.30;99.90
9193;DHT22;4631;49.296;10.560;2022-11-30T01:45:14;5.30;99.90
9193;DHT22;4631;49.296;10.560;2022-11-30T01:47:42;5.30;99.90
9193;DHT22;4631;49.296;10.560;2022-11-30T01:50:12;5.30;99.90
9193;DHT22;4631;49.296;10.560;2022-11-30T01:52:41;5.30;99.90
9193;DHT22;4631;49.296;10.560;2022-11-30T01:55:12;5.30;99.90
9193;DHT22;4631;49.296;10.560;2022-11-30T01:57:42;5.40;99.90
9193;DHT22;4631;49.296;10.560;2022-11-30T02:00:12;5.40;99.90
9193;DHT22;4631;49.296;10.560;2022-11-30T02:02:41;5.30;99.90
9193;DHT22;4631;49.296;10.560;2022-11-30T02:05:09;5.30;99.90
9193;DHT22;4631;49.296;10.560;2022-11-30T02:07:36;5.30;99.90
9193;DHT22;4631;49.296;10.560;2022-11-30T02:10:03;5.30;99.90
9193;DHT22;4631;49.296;10.560;2022-11-30T02:12:31;5.30;99.90
9193;DHT22;4631;49.296;10.560;2022-11-30T02:15:04;5.30;99.90
9193;DHT22;4631;49.296;10.560;2022-11-30T02:17:34;5.30;99.90
9193;DHT22;4631;49.296;10.560;2022-11-30T02:22:49;5.30;99.90
9193;DHT22;4631;49.296;10.560;2022-11-30T02:25:24;5.30;99.90
9193;DHT22;4631;49.296;10.560;2022-11-30T02:27:59;5.30;99.90
9193;DHT22;4631;49.296;10.560;2022-11-30T02:30:34;5.30;99.90
9193;DHT22;4631;49.296;10.560;2022-11-30T02:33:02;5.30;99.90
9193;DHT22;4631;49.296;10.560;2022-11-30T02:35:32;5.30;99.90
9193;DHT22;4631;49.296;10.560;2022-11-30T02:38:00;5.30;99.90
9193;DHT22;4631;49.296;10.560;2022-11-30T02:40:28;5.40;99.90
9193;DHT22;4631;49.296;10.560;2022-11-30T02:42:55;5.40;99.90
9193;DHT22;4631;49.296;10.560;2022-11-30T02:45:25;5.40;99.90
9193;DHT22;4631;49.296;10.560;2022-11-30T02:47:56;5.40;99.90
9193;DHT22;4631;49.296;10.560;2022-11-30T02:50:24;5.40;99.90
9193;DHT22;4631;49.296;10.560;2022-11-30T02:52:53;5.30;99.90
9193;DHT22;4631;49.296;10.560;2022-11-30T02:55:20;5.40;99.90
9193;DHT22;4631;49.296;10.560;2022-11-30T02:57:47;5.30;99.90
9193;DHT22;4631;49.296;10.560;2022-11-30T03:00:14;5.30;99.90
9193;DHT22;4631;49.296;10.560;2022-11-30T03:02:41;5.20;99.90
9193;DHT22;4631;49.296;10.560;2022-11-30T03:05:09;5.20;99.90
9193;DHT22;4631;49.296;10.560;2022-11-30T03:07:36;5.20;99.90
9193;DHT22;4631;49.296;10.560;2022-11-30T03:10:03;5.20;99.90
9193;DHT22;4631;49.296;10.560;2022-11-30T03:12:30;5.20;99.90
9193;DHT22;4631;49.296;10.560;2022-11-30T03:14:56;5.20;99.90
9193;DHT22;4631;49.296;10.560;2022-11-30T03:17:23;5.20;99.90
9193;DHT22;4631;49.296;10.560;2022-11-30T03:19:49;5.20;99.90
9193;DHT22;4631;49.296;10.560;2022-11-30T03:22:17;5.20;99.90
9193;DHT22;4631;49.296;10.560;2022-11-30T03:24:44;5.20;99.90
9193;DHT22;4631;49.296;10.560;2022-11-30T03:27:11;5.20;99.90
9193;DHT22;4631;49.296;10.560;2022-11-30T03:29:37;5.20;99.90
9193;DHT22;4631;49.296;10.560;2022-11-30T03:32:04;5.20;99.90
9193;DHT22;4631;49.296;10.560;2022-11-30T03:37:00;5.20;99.90
9193;DHT22;4631;49.296;10.560;2022-11-30T03:39:28;5.30;99.90
9193;DHT22;4631;49.296;10.560;2022-11-30T03:41:55;5.30;99.90
9193;DHT22;4631;49.296;10.560;2022-11-30T03:44:22;5.30;99.90
9193;DHT22;4631;49.296;10.560;2022-11-30T03:46:49;5.30;99.90
9193;DHT22;4631;49.296;10.560;2022-11-30T03:49:15;5.30;99.90
9193;DHT22;4631;49.296;10.560;2022-11-30T03:51:42;5.30;99.90
9193;DHT22;4631;49.296;10.560;2022-11-30T03:54:08;5.30;99.90
9193;DHT22;4631;49.296;10.560;2022-11-30T03:56:36;5.30;99.90
9193;DHT22;4631;49.296;10.560;2022-11-30T03:59:04;5.30;99.90
9193;DHT22;4631;49.296;10.560;2022-11-30T04:01:31;5.30;99.90
9193;DHT22;4631;49.296;10.560;2022-11-30T04:03:57;5.30;99.90
9193;DHT22;4631;49.296;10.560;2022-11-30T04:06:24;5.30;99.90
9193;DHT22;4631;49.296;10.560;2022-11-30T04:08:51;5.30;99.90
9193;DHT22;4631;49.296;10.560;2022-11-30T04:11:17;5.20;99.90
9193;DHT22;4631;49.296;10.560;2022-11-30T04:13:45;5.20;99.90
9193;DHT22;4631;49.296;10.560;2022-11-30T04:16:12;5.20;99.90
9193;DHT22;4631;49.296;10.560;2022-11-30T04:18:38;5.20;99.90
9193;DHT22;4631;49.296;10.560;2022-11-30T04:21:05;5.30;99.90
9193;DHT22;4631;49.296;10.560;2022-11-30T04:23:33;5.20;99.90
9193;DHT22;4631;49.296;10.560;2022-11-30T04:26:01;5.30;99.90
9193;DHT22;4631;49.296;10.560;2022-11-30T04:28:27;5.20;99.90
9193;DHT22;4631;49.296;10.560;2022-11-30T04:30:55;5.20;99.90
9193;DHT22;4631;49.296;10.560;2022-11-30T04:33:24;5.20;99.90
9193;DHT22;4631;49.296;10.560;2022-11-30T04:35:52;5.20;99.90
9193;DHT22;4631;49.296;10.560;2022-11-30T04:38:19;5.20;99.90
9193;DHT22;4631;49.296;10.560;2022-11-30T04:40:46;5.20;99.90
9193;DHT22;4631;49.296;10.560;2022-11-30T04:43:13;5.20;99.90
9193;DHT22;4631;49.296;10.560;2022-11-30T04:45:40;5.30;99.90
9193;DHT22;4631;49.296;10.560;2022-11-30T04:48:08;5.20;99.90
9193;DHT22;4631;49.296;10.560;2022-11-30T04:50:34;5.20;99.90
9193;DHT22;4631;49.296;10.560;2022-11-30T04:53:01;5.20;99.90
9193;DHT22;4631;49.296;10.560;2022-11-30T04:55:28;5.20;99.90
9193;DHT22;4631;49.296;10.560;2022-11-30T04:57:54;5.20;99.90
9193;DHT22;4631;49.296;10.560;2022-11-30T05:00:21;5.20;99.90
9193;DHT22;4631;49.296;10.560;2022-11-30T05:02:48;5.20;99.90
9193;DHT22;4631;49.296;10.560;2022-11-30T05:05:16;5.20;99.90
9193;DHT22;4631;49.296;10.560;2022-11-30T05:07:47;5.10;99.90
9193;DHT22;4631;49.296;10.560;2022-11-30T05:10:14;5.20;99.90
9193;DHT22;4631;49.296;10.560;2022-11-30T05:12:41;5.20;99.90
9193;DHT22;4631;49.296;10.560;2022-11-30T05:15:08;5.20;99.90
9193;DHT22;4631;49.296;10.560;2022-11-30T05:17:34;5.20;99.90
9193;DHT22;4631;49.296;10.560;2022-11-30T05:20:01;5.20;99.90
9193;DHT22;4631;49.296;10.560;2022-11-30T05:22:29;5.20;99.90
9193;DHT22;4631;49.296;10.560;2022-11-30T05:24:56;5.20;99.90
9193;DHT22;4631;49.296;10.560;2022-11-30T05:27:23;5.10;99.90
9193;DHT22;4631;49.296;10.560;2022-11-30T05:29:49;5.10;99.90
9193;DHT22;4631;49.296;10.560;2022-11-30T05:32:16;5.10;99.90
9193;DHT22;4631;49.296;10.560;2022-11-30T05:34:42;5.10;99.90
9193;DHT22;4631;49.296;10.560;2022-11-30T05:37:09;5.20;99.90
9193;DHT22;4631;49.296;10.560;2022-11-30T05:39:37;5.20;99.90
9193;DHT22;4631;49.296;10.560;2022-11-30T05:42:04;5.20;99.90
9193;DHT22;4631;49.296;10.560;2022-11-30T05:44:30;5.10;99.90
9193;DHT22;4631;49.296;10.560;2022-11-30T05:46:57;5.10;99.90
9193;DHT22;4631;49.296;10.560;2022-11-30T05:49:24;5.10;99.90
9193;DHT22;4631;49.296;10.560;2022-11-30T05:51:50;5.10;99.90
9193;DHT22;4631;49.296;10.560;2022-11-30T05:54:17;5.10;99.90
9193;DHT22;4631;49.296;10.560;2022-11-30T05:56:45;5.20;99.90
9193;DHT22;4631;49.296;10.560;2022-11-30T05:59:12;5.10;99.90
9193;DHT22;4631;49.296;10.560;2022-11-30T06:01:38;5.20;99.90
9193;DHT22;4631;49.296;10.560;2022-11-30T06:04:05;5.20;99.90
9193;DHT22;4631;49.296;10.560;2022-11-30T06:06:34;5.20;99.90
9193;DHT22;4631;49.296;10.560;2022-11-30T06:09:00;5.10;99.90
9193;DHT22;4631;49.296;10.560;2022-11-30T06:11:27;5.10;99.90
9193;DHT22;4631;49.296;10.560;2022-11-30T06:13:55;5.10;99.90
9193;DHT22;4631;49.296;10.560;2022-11-30T06:16:21;5.10;99.90
9193;DHT22;4631;49.296;10.560;2022-11-30T06:18:48;5.10;99.90
9193;DHT22;4631;49.296;10.560;2022-11-30T06:21:15;5.10;99.90
9193;DHT22;4631;49.296;10.560;2022-11-30T06:23:41;5.10;99.90
9193;DHT22;4631;49.296;10.560;2022-11-30T06:26:09;5.10;99.90
9193;DHT22;4631;49.296;10.560;2022-11-30T06:28:36;5.10;99.90
9193;DHT22;4631;49.296;10.560;2022-11-30T06:31:05;5.10;99.90
9193;DHT22;4631;49.296;10.560;2022-11-30T06:33:32;5.10;99.90
9193;DHT22;4631;49.296;10.560;2022-11-30T06:35:59;5.10;99.90
9193;DHT22;4631;49.296;10.560;2022-11-30T06:38:25;5.00;99.90
9193;DHT22;4631;49.296;10.560;2022-11-30T06:40:52;5.00;99.90
9193;DHT22;4631;49.296;10.560;2022-11-30T06:43:19;5.00;99.90
9193;DHT22;4631;49.296;10.560;2022-11-30T06:45:46;5.00;99.90
9193;DHT22;4631;49.296;10.560;2022-11-30T06:48:14;4.90;99.90
9193;DHT22;4631;49.296;10.560;2022-11-30T06:50:41;4.90;99.90
9193;DHT22;4631;49.296;10.560;2022-11-30T06:53:07;4.90;99.90
9193;DHT22;4631;49.296;10.560;2022-11-30T06:55:34;4.80;99.90
9193;DHT22;4631;49.296;10.560;2022-11-30T06:58:05;4.80;99.90
9193;DHT22;4631;49.296;10.560;2022-11-30T07:00:32;4.80;99.90
9193;DHT22;4631;49.296;10.560;2022-11-30T07:02:58;4.80;99.90
9193;DHT22;4631;49.296;10.560;2022-11-30T07:05:26;4.80;99.90
9193;DHT22;4631;49.296;10.560;2022-11-30T07:07:53;4.80;99.90
9193;DHT22;4631;49.296;10.560;2022-11-30T07:10:20;4.90;99.90
9193;DHT22;4631;49.296;10.560;2022-11-30T07:12:48;4.90;99.90
9193;DHT22;4631;49.296;10.560;2022-11-30T07:15:14;4.80;99.90
9193;DHT22;4631;49.296;10.560;2022-11-30T07:17:41;4.80;99.90
9193;DHT22;4631;49.296;10.560;2022-11-30T07:20:08;4.80;99.90
9193;DHT22;4631;49.296;10.560;2022-11-30T07:22:36;4.70;99.90
9193;DHT22;4631;49.296;10.560;2022-11-30T07:25:03;4.80;99.90
9193;DHT22;4631;49.296;10.560;2022-11-30T07:27:47;4.80;99.90
9193;DHT22;4631;49.296;10.560;2022-11-30T07:30:14;4.80;99.90
9193;DHT22;4631;49.296;10.560;2022-11-30T07:32:40;4.80;99.90
9193;DHT22;4631;49.296;10.560;2022-11-30T07:35:07;4.80;99.90
9193;DHT22;4631;49.296;10.560;2022-11-30T07:37:35;4.70;99.90
9193;DHT22;4631;49.296;10.560;2022-11-30T07:40:02;4.80;99.90
9193;DHT22;4631;49.296;10.560;2022-11-30T07:42:29;4.80;99.90
9193;DHT22;4631;49.296;10.560;2022-11-30T07:44:55;4.80;99.90
9193;DHT22;4631;49.296;10.560;2022-11-30T07:47:22;4.80;99.90
9193;DHT22;4631;49.296;10.560;2022-11-30T07:49:49;4.80;99.90
9193;DHT22;4631;49.296;10.560;2022-11-30T07:52:15;4.80;99.90
9193;DHT22;4631;49.296;10.560;2022-11-30T07:54:49;4.80;99.90
9193;DHT22;4631;49.296;10.560;2022-11-30T07:57:16;4.80;99.90
9193;DHT22;4631;49.296;10.560;2022-11-30T07:59:42;4.80;99.90
9193;DHT22;4631;49.296;10.560;2022-11-30T08:02:09;4.80;99.90
9193;DHT22;4631;49.296;10.560;2022-11-30T08:04:36;4.80;99.90
9193;DHT22;4631;49.296;10.560;2022-11-30T08:07:02;4.80;99.90
9193;DHT22;4631;49.296;10.560;2022-11-30T08:09:29;4.80;99.90
9193;DHT22;4631;49.296;10.560;2022-11-30T08:11:57;4.80;99.90
9193;DHT22;4631;49.296;10.560;2022-11-30T08:14:24;4.80;99.90
9193;DHT22;4631;49.296;10.560;2022-11-30T08:16:50;4.90;99.90
9193;DHT22;4631;49.296;10.560;2022-11-30T08:19:17;4.90;99.90
9193;DHT22;4631;49.296;10.560;2022-11-30T08:21:44;4.90;99.90
9193;DHT22;4631;49.296;10.560;2022-11-30T08:24:10;4.90;99.90
9193;DHT22;4631;49.296;10.560;2022-11-30T08:26:38;4.80;99.90
9193;DHT22;4631;49.296;10.560;2022-11-30T08:29:06;4.80;99.90
9193;DHT22;4631;49.296;10.560;2022-11-30T08:31:33;4.80;99.90
9193;DHT22;4631;49.296;10.560;2022-11-30T08:34:01;4.80;99.90
9193;DHT22;4631;49.296;10.560;2022-11-30T08:36:28;4.90;99.90
9193;DHT22;4631;49.296;10.560;2022-11-30T08:38:55;4.90;99.90
9193;DHT22;4631;49.296;10.560;2022-11-30T08:41:22;4.90;99.90
9193;DHT22;4631;49.296;10.560;2022-11-30T08:43:49;4.90;99.90
9193;DHT22;4631;49.296;10.560;2022-11-30T08:46:18;4.90;99.90
9193;DHT22;4631;49.296;10.560;2022-11-30T08:48:44;4.90;99.90
9193;DHT22;4631;49.296;10.560;2022-11-30T08:51:12;4.90;99.90
9193;DHT22;4631;49.296;10.560;2022-11-30T08:53:39;4.90;99.90
9193;DHT22;4631;49.296;10.560;2022-11-30T08:56:15;4.90;99.90
9193;DHT22;4631;49.296;10.560;2022-11-30T08:58:42;4.90;99.90
9193;DHT22;4631;49.296;10.560;2022-11-30T09:01:10;5.00;99.90
9193;DHT22;4631;49.296;10.560;2022-11-30T09:03:39;5.00;99.90
9193;DHT22;4631;49.296;10.560;2022-11-30T09:06:06;5.00;99.90
9193;DHT22;4631;49.296;10.560;2022-11-30T09:08:33;5.00;99.90
9193;DHT22;4631;49.296;10.560;2022-11-30T09:11:07;5.00;99.90
9193;DHT22;4631;49.296;10.560;2022-11-30T09:13:33;5.10;99.90
9193;DHT22;4631;49.296;10.560;2022-11-30T09:16:00;5.10;99.90
9193;DHT22;4631;49.296;10.560;2022-11-30T09:18:27;5.20;99.90
9193;DHT22;4631;49.296;10.560;2022-11-30T09:20:58;5.20;99.90
9193;DHT22;4631;49.296;10.560;2022-11-30T09:23:25;5.20;99.90
9193;DHT22;4631;49.296;10.560;2022-11-30T09:25:53;5.20;99.90
9193;DHT22;4631;49.296;10.560;2022-11-30T09:28:20;5.20;99.90
9193;DHT22;4631;49.296;10.560;2022-11-30T09:30:47;5.10;99.90
9193;DHT22;4631;49.296;10.560;2022-11-30T09:33:13;5.10;99.90
9193;DHT22;4631;49.296;10.560;2022-11-30T09:35:40;5.10;99.90
9193;DHT22;4631;49.296;10.560;2022-11-30T09:38:08;5.00;99.90
9193;DHT22;4631;49.296;10.560;2022-11-30T09:40:35;5.10;99.90
9193;DHT22;4631;49.296;10.560;2022-11-30T09:43:03;5.00;99.90
9193;DHT22;4631;49.296;10.560;2022-11-30T09:45:32;5.10;99.90
9193;DHT22;4631;49.296;10.560;2022-11-30T09:48:09;5.00;99.90
9193;DHT22;4631;49.296;10.560;2022-11-30T09:50:43;5.00;99.90
9193;DHT22;4631;49.296;10.560;2022-11-30T09:53:14;5.10;99.90
9193;DHT22;4631;49.296;10.560;2022-11-30T09:55:41;5.00;99.90
9193;DHT22;4631;49.296;10.560;2022-11-30T09:58:10;5.10;99.90
9193;DHT22;4631;49.296;10.560;2022-11-30T10:00:41;5.10;99.90
9193;DHT22;4631;49.296;10.560;2022-11-30T10:03:09;5.10;99.90
9193;DHT22;4631;49.296;10.560;2022-11-30T10:05:40;5.00;99.90
9193;DHT22;4631;49.296;10.560;2022-11-30T10:08:14;5.00;99.90
9193;DHT22;4631;49.296;10.560;2022-11-30T10:10:44;5.00;99.90
9193;DHT22;4631;49.296;10.560;2022-11-30T10:13:17;5.00;99.90
9193;DHT22;4631;49.296;10.560;2022-11-30T10:15:50;5.00;99.90
9193;DHT22;4631;49.296;10.560;2022-11-30T10:18:21;5.00;99.90
9193;DHT22;4631;49.296;10.560;2022-11-30T10:20:54;4.90;99.90
9193;DHT22;4631;49.296;10.560;2022-11-30T10:23:32;4.90;99.90
9193;DHT22;4631;49.296;10.560;2022-11-30T10:26:02;4.90;99.90
9193;DHT22;4631;49.296;10.560;2022-11-30T10:28:35;4.80;99.90
9193;DHT22;4631;49.296;10.560;2022-11-30T10:31:06;4.80;99.90
9193;DHT22;4631;49.296;10.560;2022-11-30T10:33:36;4.80;99.90
9193;DHT22;4631;49.296;10.560;2022-11-30T10:36:07;4.80;99.90
9193;DHT22;4631;49.296;10.560;2022-11-30T10:38:39;4.80;99.90
9193;DHT22;4631;49.296;10.560;2022-11-30T10:41:09;4.80;99.90
9193;DHT22;4631;49.296;10.560;2022-11-30T10:43:37;4.70;99.90
9193;DHT22;4631;49.296;10.560;2022-11-30T10:46:08;4.70;99.90
9193;DHT22;4631;49.296;10.560;2022-11-30T10:48:40;4.60;99.90
9193;DHT22;4631;49.296;10.560;2022-11-30T10:51:09;4.60;99.90
9193;DHT22;4631;49.296;10.560;2022-11-30T10:53:36;4.50;99.90
9193;DHT22;4631;49.296;10.560;2022-11-30T10:56:07;4.50;99.90
9193;DHT22;4631;49.296;10.560;2022-11-30T10:58:35;4.50;99.90
9193;DHT22;4631;49.296;10.560;2022-11-30T11:01:04;4.50;99.90
9193;DHT22;4631;49.296;10.560;2022-11-30T11:03:30;4.60;99.90
9193;DHT22;4631;49.296;10.560;2022-11-30T11:06:04;4.60;99.90
9193;DHT22;4631;49.296;10.560;2022-11-30T11:08:32;4.60;99.90
9193;DHT22;4631;49.296;10.560;2022-11-30T11:10:59;4.60;99.90
9193;DHT22;4631;49.296;10.560;2022-11-30T11:13:37;4.60;99.90
9193;DHT22;4631;49.296;10.560;2022-11-30T11:16:05;4.60;99.90
9193;DHT22;4631;49.296;10.560;2022-11-30T11:18:33;4.60;99.90
9193;DHT22;4631;49.296;10.560;2022-11-30T11:21:01;4.60;99.90
9193;DHT22;4631;49.296;10.560;2022-11-30T11:23:29;4.60;99.90
9193;DHT22;4631;49.296;10.560;2022-11-30T11:25:56;4.60;99.90
9193;DHT22;4631;49.296;10.560;2022-11-30T11:28:22;4.60;99.90
9193;DHT22;4631;49.296;10.560;2022-11-30T11:30:52;4.60;99.90
9193;DHT22;4631;49.296;10.560;2022-11-30T11:33:21;4.60;99.90
9193;DHT22;4631;49.296;10.560;2022-11-30T11:35:49;4.60;99.90
9193;DHT22;4631;49.296;10.560;2022-11-30T11:38:17;4.60;99.90
9193;DHT22;4631;49.296;10.560;2022-11-30T11:40:55;4.60;99.90
9193;DHT22;4631;49.296;10.560;2022-11-30T11:43:23;4.60;99.90
9193;DHT22;4631;49.296;10.560;2022-11-30T11:45:52;4.60;99.90
9193;DHT22;4631;49.296;10.560;2022-11-30T11:48:26;4.60;99.90
9193;DHT22;4631;49.296;10.560;2022-11-30T11:50:55;4.60;99.90
9193;DHT22;4631;49.296;10.560;2022-11-30T11:53:23;4.60;99.90
9193;DHT22;4631;49.296;10.560;2022-11-30T11:56:03;4.60;99.90
9193;DHT22;4631;49.296;10.560;2022-11-30T11:58:36;4.70;99.90
9193;DHT22;4631;49.296;10.560;2022-11-30T12:01:05;4.70;99.90
9193;DHT22;4631;49.296;10.560;2022-11-30T12:03:35;4.60;99.90
9193;DHT22;4631;49.296;10.560;2022-11-30T12:06:04;4.70;99.90
9193;DHT22;4631;49.296;10.560;2022-11-30T12:08:34;4.60;99.90
9193;DHT22;4631;49.296;10.560;2022-11-30T12:11:04;4.60;99.90
9193;DHT22;4631;49.296;10.560;2022-11-30T12:13:36;4.50;99.90
9193;DHT22;4631;49.296;10.560;2022-11-30T12:16:06;4.50;99.90
9193;DHT22;4631;49.296;10.560;2022-11-30T12:18:36;4.50;99.90
9193;DHT22;4631;49.296;10.560;2022-11-30T12:21:10;4.50;99.90
9193;DHT22;4631;49.296;10.560;2022-11-30T12:23:44;4.50;99.90
9193;DHT22;4631;49.296;10.560;2022-11-30T12:26:14;4.50;99.90
9193;DHT22;4631;49.296;10.560;2022-11-30T12:28:49;4.50;99.90
9193;DHT22;4631;49.296;10.560;2022-11-30T12:31:20;4.50;99.90
9193;DHT22;4631;49.296;10.560;2022-11-30T12:33:53;4.50;99.90
9193;DHT22;4631;49.296;10.560;2022-11-30T12:36:24;4.50;99.90
9193;DHT22;4631;49.296;10.560;2022-11-30T12:38:58;4.40;99.90
9193;DHT22;4631;49.296;10.560;2022-11-30T12:41:29;4.40;99.90
9193;DHT22;4631;49.296;10.560;2022-11-30T12:43:58;4.40;99.90
9193;DHT22;4631;49.296;10.560;2022-11-30T12:46:31;4.30;99.90
9193;DHT22;4631;49.296;10.560;2022-11-30T12:49:19;4.30;99.90
9193;DHT22;4631;49.296;10.560;2022-11-30T12:51:48;4.20;99.90
9193;DHT22;4631;49.296;10.560;2022-11-30T12:54:20;4.10;99.90
9193;DHT22;4631;49.296;10.560;2022-11-30T12:56:50;4.00;99.90
9193;DHT22;4631;49.296;10.560;2022-11-30T12:59:21;4.00;99.90
9193;DHT22;4631;49.296;10.560;2022-11-30T13:01:59;3.90;99.90
9193;DHT22;4631;49.296;10.560;2022-11-30T13:04:28;3.90;99.90
9193;DHT22;4631;49.296;10.560;2022-11-30T13:06:59;3.80;99.90
9193;DHT22;4631;49.296;10.560;2022-11-30T13:09:27;3.90;99.90
9193;DHT22;4631;49.296;10.560;2022-11-30T13:11:56;4.00;99.90
9193;DHT22;4631;49.296;10.560;2022-11-30T13:14:25;3.90;99.90
9193;DHT22;4631;49.296;10.560;2022-11-30T13:16:55;3.80;99.90
9193;DHT22;4631;49.296;10.560;2022-11-30T13:19:28;3.90;99.90
9193;DHT22;4631;49.296;10.560;2022-11-30T13:21:58;3.80;99.90
9193;DHT22;4631;49.296;10.560;2022-11-30T13:24:28;3.80;99.90
9193;DHT22;4631;49.296;10.560;2022-11-30T13:26:58;3.80;99.90
9193;DHT22;4631;49.296;10.560;2022-11-30T13:29:38;3.80;99.90
9193;DHT22;4631;49.296;10.560;2022-11-30T13:32:09;3.80;99.90
9193;DHT22;4631;49.296;10.560;2022-11-30T13:34:37;3.80;99.90
9193;DHT22;4631;49.296;10.560;2022-11-30T13:37:04;3.80;99.90
9193;DHT22;4631;49.296;10.560;2022-11-30T13:39:43;3.80;99.90
9193;DHT22;4631;49.296;10.560;2022-11-30T13:42:32;3.70;99.90
9193;DHT22;4631;49.296;10.560;2022-11-30T13:45:14;3.70;99.90
9193;DHT22;4631;49.296;10.560;2022-11-30T13:47:42;3.70;99.90
9193;DHT22;4631;49.296;10.560;2022-11-30T13:50:15;3.60;99.90
9193;DHT22;4631;49.296;10.560;2022-11-30T13:55:44;3.60;99.90
9193;DHT22;4631;49.296;10.560;2022-11-30T13:58:15;3.60;99.90
9193;DHT22;4631;49.296;10.560;2022-11-30T14:00:43;3.60;99.90
9193;DHT22;4631;49.296;10.560;2022-11-30T14:03:21;3.70;99.90
9193;DHT22;4631;49.296;10.560;2022-11-30T14:05:50;3.60;99.90
9193;DHT22;4631;49.296;10.560;2022-11-30T14:13:49;3.60;99.90
9193;DHT22;4631;49.296;10.560;2022-11-30T14:16:22;3.60;99.90
9193;DHT22;4631;49.296;10.560;2022-11-30T14:18:51;3.60;99.90
9193;DHT22;4631;49.296;10.560;2022-11-30T14:21:28;3.70;99.90
9193;DHT22;4631;49.296;10.560;2022-11-30T14:23:57;3.60;99.90
9193;DHT22;4631;49.296;10.560;2022-11-30T14:26:26;3.70;99.90
9193;DHT22;4631;49.296;10.560;2022-11-30T14:28:56;3.60;99.90
9193;DHT22;4631;49.296;10.560;2022-11-30T14:31:24;3.60;99.90
9193;DHT22;4631;49.296;10.560;2022-11-30T14:33:52;3.60;99.90
9193;DHT22;4631;49.296;10.560;2022-11-30T14:36:20;3.60;99.90
9193;DHT22;4631;49.296;10.560;2022-11-30T14:38:49;3.60;99.90
9193;DHT22;4631;49.296;10.560;2022-11-30T14:41:19;3.60;99.90
9193;DHT22;4631;49.296;10.560;2022-11-30T14:44:03;3.60;99.90
9193;DHT22;4631;49.296;10.560;2022-11-30T14:46:31;3.50;99.90
9193;DHT22;4631;49.296;10.560;2022-11-30T14:49:05;3.60;99.90
9193;DHT22;4631;49.296;10.560;2022-11-30T14:51:32;3.60;99.90
9193;DHT22;4631;49.296;10.560;2022-11-30T14:54:03;3.50;99.90
9193;DHT22;4631;49.296;10.560;2022-11-30T14:56:32;3.50;99.90
9193;DHT22;4631;49.296;10.560;2022-11-30T14:59:04;3.50;99.90
9193;DHT22;4631;49.296;10.560;2022-11-30T15:01:32;3.50;99.90
9193;DHT22;4631;49.296;10.560;2022-11-30T15:03:59;3.50;99.90
9193;DHT22;4631;49.296;10.560;2022-11-30T15:06:29;3.40;99.90
9193;DHT22;4631;49.296;10.560;2022-11-30T15:08:57;3.40;99.90
9193;DHT22;4631;49.296;10.560;2022-11-30T15:11:26;3.40;99.90
9193;DHT22;4631;49.296;10.560;2022-11-30T15:13:53;3.40;99.90
9193;DHT22;4631;49.296;10.560;2022-11-30T15:16:25;3.40;99.90
9193;DHT22;4631;49.296;10.560;2022-11-30T15:18:52;3.40;99.90
9193;DHT22;4631;49.296;10.560;2022-11-30T15:21:20;3.30;99.90
9193;DHT22;4631;49.296;10.560;2022-11-30T15:23:48;3.30;99.90
9193;DHT22;4631;49.296;10.560;2022-11-30T15:26:15;3.30;99.90
9193;DHT22;4631;49.296;10.560;2022-11-30T15:28:45;3.30;99.90
9193;DHT22;4631;49.296;10.560;2022-11-30T15:31:15;3.30;99.90
9193;DHT22;4631;49.296;10.560;2022-11-30T15:33:43;3.30;99.90
9193;DHT22;4631;49.296;10.560;2022-11-30T15:36:10;3.30;99.90
9193;DHT22;4631;49.296;10.560;2022-11-30T15:38:37;3.30;99.90
9193;DHT22;4631;49.296;10.560;2022-11-30T15:41:05;3.30;99.90
9193;DHT22;4631;49.296;10.560;2022-11-30T15:43:34;3.40;99.90
9193;DHT22;4631;49.296;10.560;2022-11-30T15:46:03;3.40;99.90
9193;DHT22;4631;49.296;10.560;2022-11-30T15:48:30;3.40;99.90
9193;DHT22;4631;49.296;10.560;2022-11-30T15:50:58;3.30;99.90
9193;DHT22;4631;49.296;10.560;2022-11-30T15:53:31;3.30;99.90
9193;DHT22;4631;49.296;10.560;2022-11-30T15:55:59;3.40;99.90
9193;DHT22;4631;49.296;10.560;2022-11-30T15:58:28;3.40;99.90
9193;DHT22;4631;49.296;10.560;2022-11-30T16:01:00;3.40;99.90
9193;DHT22;4631;49.296;10.560;2022-11-30T16:03:28;3.40;99.90
9193;DHT22;4631;49.296;10.560;2022-11-30T16:05:55;3.40;99.90
9193;DHT22;4631;49.296;10.560;2022-11-30T16:08:22;3.30;99.90
9193;DHT22;4631;49.296;10.560;2022-11-30T16:10:49;3.40;99.90
9193;DHT22;4631;49.296;10.560;2022-11-30T16:13:16;3.40;99.90
9193;DHT22;4631;49.296;10.560;2022-11-30T16:15:44;3.40;99.90
9193;DHT22;4631;49.296;10.560;2022-11-30T16:18:12;3.30;99.90
9193;DHT22;4631;49.296;10.560;2022-11-30T16:20:41;3.30;99.90
9193;DHT22;4631;49.296;10.560;2022-11-30T16:23:09;3.30;99.90
9193;DHT22;4631;49.296;10.560;2022-11-30T16:25:38;3.30;99.90